createdAt,value
2022-10-02T00:00:43.918Z,13.47
2022-10-02T00:01:44.451Z,13.49
2022-10-02T00:02:45.311Z,13.52
2022-10-02T00:03:46.653Z,13.43
2022-10-02T00:04:47.402Z,13.43
2022-10-02T00:05:47.301Z,13.45
2022-10-02T00:06:48.501Z,13.43
2022-10-02T00:07:48.414Z,13.43
2022-10-02T00:08:49.365Z,13.4
2022-10-02T00:09:50.562Z,13.39
2022-10-02T00:10:50.875Z,13.45
2022-10-02T00:11:50.490Z,13.4
2022-10-02T00:12:51.406Z,13.45
2022-10-02T00:13:52.127Z,13.46
2022-10-02T00:14:53.054Z,13.4
2022-10-02T00:15:53.091Z,13.45
2022-10-02T00:16:54.448Z,13.4
2022-10-02T00:17:54.493Z,13.43
2022-10-02T00:18:55.411Z,13.43
2022-10-02T00:19:55.901Z,13.4
2022-10-02T00:20:56.635Z,13.4
2022-10-02T00:21:56.849Z,13.42
2022-10-02T00:22:58.036Z,13.37
2022-10-02T00:23:58.264Z,13.39
2022-10-02T00:24:58.748Z,13.45
2022-10-02T00:25:58.987Z,13.43
2022-10-02T00:26:59.203Z,13.36
2022-10-02T00:28:00.291Z,13.45
2022-10-02T00:29:00.133Z,13.36
2022-10-02T00:30:01.328Z,13.45
2022-10-02T00:31:02.040Z,13.46
2022-10-02T00:32:03.441Z,13.4
2022-10-02T00:33:03.146Z,13.43
2022-10-02T00:34:04.345Z,13.39
2022-10-02T00:35:04.498Z,13.47
2022-10-02T00:36:04.690Z,13.43
2022-10-02T00:37:05.030Z,13.54
2022-10-02T00:38:05.947Z,13.5
2022-10-02T00:39:06.974Z,13.6
2022-10-02T00:40:06.891Z,13.54
2022-10-02T00:41:07.320Z,13.57
2022-10-02T00:42:07.929Z,13.54
2022-10-02T00:43:08.543Z,13.55
2022-10-02T00:44:09.736Z,13.54
2022-10-02T00:45:10.366Z,13.54
2022-10-02T00:46:11.518Z,13.52
2022-10-02T00:47:12.581Z,13.52
2022-10-02T00:48:12.794Z,13.57
2022-10-02T00:49:12.734Z,13.57
2022-10-02T00:50:13.386Z,13.57
2022-10-02T00:51:14.370Z,13.54
2022-10-02T00:52:14.580Z,13.55
2022-10-02T00:53:15.172Z,13.5
2022-10-02T00:54:16.134Z,13.57
2022-10-02T00:55:16.079Z,13.52
2022-10-02T00:56:17.035Z,13.54
2022-10-02T00:57:17.966Z,13.55
2022-10-02T00:58:18.880Z,13.55
2022-10-02T00:59:18.673Z,13.58
2022-10-02T01:00:19.281Z,13.6
2022-10-02T01:01:19.964Z,13.5
2022-10-02T01:02:20.101Z,13.54
2022-10-02T01:03:20.374Z,13.45
2022-10-02T01:04:20.714Z,13.43
2022-10-02T01:05:21.898Z,13.39
2022-10-02T01:06:22.505Z,13.45
2022-10-02T01:07:23.766Z,13.45
2022-10-02T01:08:23.408Z,13.46
2022-10-02T01:09:24.932Z,13.42
2022-10-02T01:10:24.821Z,13.43
2022-10-02T01:11:25.264Z,13.49
2022-10-02T01:12:25.200Z,13.47
2022-10-02T01:13:26.386Z,13.6
2022-10-02T01:14:26.401Z,13.52
2022-10-02T01:15:27.013Z,13.54
2022-10-02T01:16:27.810Z,13.55
2022-10-02T01:17:28.541Z,13.55
2022-10-02T01:18:28.754Z,13.6
2022-10-02T01:19:29.098Z,13.57
2022-10-02T01:20:30.584Z,13.6
2022-10-02T01:21:30.125Z,13.6
2022-10-02T01:22:31.034Z,13.58
2022-10-02T01:23:32.223Z,13.55
2022-10-02T01:24:32.896Z,13.52
2022-10-02T01:25:33.218Z,13.57
2022-10-02T01:26:35.449Z,13.64
2022-10-02T01:27:39.719Z,13.6
2022-10-02T01:28:36.482Z,13.64
2022-10-02T01:29:36.970Z,13.57
2022-10-02T01:30:37.585Z,13.61
2022-10-02T01:31:37.655Z,13.64
2022-10-02T01:32:38.707Z,13.64
2022-10-02T01:33:39.323Z,13.65
2022-10-02T01:34:39.236Z,13.62
2022-10-02T01:35:39.837Z,13.62
2022-10-02T01:36:40.215Z,13.58
2022-10-02T01:37:41.126Z,13.55
2022-10-02T01:38:42.043Z,13.55
2022-10-02T01:39:43.039Z,13.54
2022-10-02T01:40:43.210Z,13.4
2022-10-02T01:41:43.665Z,13.4
2022-10-02T01:42:43.978Z,13.46
2022-10-02T01:43:44.868Z,13.4
2022-10-02T01:44:45.368Z,13.43
2022-10-02T01:45:46.189Z,13.37
2022-10-02T01:46:47.225Z,13.46
2022-10-02T01:47:47.837Z,13.43
2022-10-02T01:48:48.452Z,13.45
2022-10-02T01:49:49.347Z,13.47
2022-10-02T01:50:50.267Z,13.36
2022-10-02T01:51:50.704Z,13.43
2022-10-02T01:52:51.916Z,13.54
2022-10-02T01:53:52.505Z,13.46
2022-10-02T01:54:53.474Z,13.43
2022-10-02T01:55:54.651Z,13.43
2022-10-02T01:56:54.932Z,13.45
2022-10-02T01:57:55.129Z,13.36
2022-10-02T01:58:55.765Z,13.46
2022-10-02T01:59:55.677Z,13.54
2022-10-02T02:00:56.139Z,13.57
2022-10-02T02:01:57.418Z,13.65
2022-10-02T02:02:58.036Z,13.65
2022-10-02T02:03:57.975Z,13.7
2022-10-02T02:04:58.910Z,13.73
2022-10-02T02:05:59.248Z,13.7
2022-10-02T02:06:59.747Z,13.8
2022-10-02T02:07:59.950Z,13.82
2022-10-02T02:09:06.293Z,13.79
2022-10-02T02:10:01.693Z,13.85
2022-10-02T02:11:02.874Z,13.79
2022-10-02T02:12:02.988Z,13.85
2022-10-02T02:13:02.601Z,13.85
2022-10-02T02:14:03.793Z,13.87
2022-10-02T02:15:03.488Z,13.8
2022-10-02T02:16:04.296Z,13.86
2022-10-02T02:17:04.572Z,13.98
2022-10-02T02:18:06.087Z,13.98
2022-10-02T02:19:07.545Z,14
2022-10-02T02:20:06.890Z,14.01
2022-10-02T02:21:07.526Z,13.86
2022-10-02T02:22:08.469Z,14.03
2022-10-02T02:23:09.102Z,13.94
2022-10-02T02:24:09.592Z,14
2022-10-02T02:25:09.835Z,13.95
2022-10-02T02:26:10.161Z,13.98
2022-10-02T02:27:11.380Z,14.04
2022-10-02T02:28:11.427Z,14.04
2022-10-02T02:29:12.146Z,13.98
2022-10-02T02:30:12.339Z,14.01
2022-10-02T02:31:12.766Z,14.03
2022-10-02T02:32:13.060Z,13.93
2022-10-02T02:33:13.269Z,14.05
2022-10-02T02:34:14.201Z,14.07
2022-10-02T02:35:15.118Z,13.98
2022-10-02T02:36:15.321Z,14.03
2022-10-02T02:37:15.238Z,14.04
2022-10-02T02:38:16.433Z,14.04
2022-10-02T02:39:16.925Z,14.08
2022-10-02T02:40:17.180Z,14.01
2022-10-02T02:41:17.804Z,14.01
2022-10-02T02:42:26.668Z,14.04
2022-10-02T02:43:19.165Z,14.03
2022-10-02T02:44:19.083Z,14.01
2022-10-02T02:45:19.715Z,14
2022-10-02T02:46:20.493Z,14.07
2022-10-02T02:47:21.107Z,14.04
2022-10-02T02:48:22.000Z,13.93
2022-10-02T02:49:22.204Z,13.95
2022-10-02T02:50:23.120Z,13.94
2022-10-02T02:51:24.019Z,14
2022-10-02T02:52:24.312Z,14.01
2022-10-02T02:53:24.199Z,13.97
2022-10-02T02:54:24.141Z,13.95
2022-10-02T02:55:25.387Z,13.97
2022-10-02T02:56:25.616Z,13.97
2022-10-02T02:57:26.599Z,13.95
2022-10-02T02:58:26.488Z,13.87
2022-10-02T02:59:27.125Z,13.87
2022-10-02T03:00:27.443Z,13.89
2022-10-02T03:01:28.392Z,13.87
2022-10-02T03:02:29.593Z,13.98
2022-10-02T03:03:29.642Z,13.97
2022-10-02T03:04:29.986Z,14.01
2022-10-02T03:05:30.616Z,13.89
2022-10-02T03:06:31.550Z,13.91
2022-10-02T03:07:32.193Z,13.89
2022-10-02T03:08:32.399Z,13.91
2022-10-02T03:09:33.038Z,13.8
2022-10-02T03:10:34.563Z,13.86
2022-10-02T03:11:34.743Z,13.93
2022-10-02T03:12:35.070Z,13.93
2022-10-02T03:13:35.690Z,13.95
2022-10-02T03:14:36.606Z,13.86
2022-10-02T03:15:37.260Z,13.98
2022-10-02T03:16:39.307Z,14.03
2022-10-02T03:17:39.135Z,13.97
2022-10-02T03:18:39.050Z,14.01
2022-10-02T03:19:39.963Z,13.98
2022-10-02T03:20:40.576Z,13.93
2022-10-02T03:21:41.069Z,13.87
2022-10-02T03:22:41.086Z,13.98
2022-10-02T03:23:41.280Z,13.98
2022-10-02T03:24:42.211Z,13.93
2022-10-02T03:25:42.887Z,13.85
2022-10-02T03:26:43.599Z,14.01
2022-10-02T03:27:43.843Z,13.93
2022-10-02T03:29:01.394Z,13.94
2022-10-02T03:29:44.590Z,13.93
2022-10-02T03:30:45.786Z,13.87
2022-10-02T03:31:45.945Z,13.91
2022-10-02T03:32:46.182Z,13.89
2022-10-02T03:33:46.523Z,13.98
2022-10-02T03:34:48.143Z,13.97
2022-10-02T03:35:48.337Z,14.03
2022-10-02T03:36:48.952Z,13.94
2022-10-02T03:37:49.592Z,14.05
2022-10-02T03:39:25.010Z,13.97
2022-10-02T03:39:50.552Z,14.05
2022-10-02T03:40:51.565Z,14.04
2022-10-02T03:41:51.466Z,14.01
2022-10-02T03:42:52.093Z,14.05
2022-10-02T03:43:52.312Z,14.12
2022-10-02T03:44:52.647Z,14.15
2022-10-02T03:45:57.442Z,14.2
2022-10-02T03:46:54.904Z,14.2
2022-10-02T03:47:54.605Z,14.23
2022-10-02T03:48:55.835Z,14.22
2022-10-02T03:49:56.447Z,14.23
2022-10-02T03:50:56.764Z,14.23
2022-10-02T03:51:57.802Z,14.19
2022-10-02T03:52:59.212Z,14.19
2022-10-02T03:54:00.122Z,14.2
2022-10-02T03:55:01.027Z,14.15
2022-10-02T03:56:01.596Z,14.23
2022-10-02T03:57:01.798Z,14.16
2022-10-02T03:58:02.328Z,14.16
2022-10-02T03:59:02.821Z,14.25
2022-10-02T04:00:02.461Z,14.26
2022-10-02T04:01:03.378Z,14.28
2022-10-02T04:02:03.763Z,14.36
2022-10-02T04:03:04.183Z,14.31
2022-10-02T04:04:05.349Z,14.38
2022-10-02T04:05:06.238Z,14.3
2022-10-02T04:06:06.148Z,14.3
2022-10-02T04:07:07.085Z,14.3
2022-10-02T04:08:07.273Z,14.26
2022-10-02T04:09:08.170Z,14.37
2022-10-02T04:10:09.095Z,14.18
2022-10-02T04:11:09.766Z,14.15
2022-10-02T04:12:10.687Z,14.03
2022-10-02T04:13:10.986Z,13.93
2022-10-02T04:14:11.198Z,13.86
2022-10-02T04:15:11.389Z,13.91
2022-10-02T04:16:12.848Z,13.83
2022-10-02T04:17:12.714Z,13.78
2022-10-02T04:18:13.605Z,13.78
2022-10-02T04:19:14.518Z,13.71
2022-10-02T04:20:14.416Z,13.7
2022-10-02T04:21:14.599Z,13.64
2022-10-02T04:22:14.935Z,13.68
2022-10-02T04:23:16.254Z,13.61
2022-10-02T04:24:15.870Z,13.55
2022-10-02T04:25:16.859Z,13.57
2022-10-02T04:26:17.538Z,13.6
2022-10-02T04:27:17.442Z,13.46
2022-10-02T04:28:17.834Z,13.47
2022-10-02T04:29:18.146Z,13.47
2022-10-02T04:30:18.337Z,13.42
2022-10-02T04:31:19.485Z,13.39
2022-10-02T04:32:20.609Z,13.37
2022-10-02T04:33:20.905Z,13.37
2022-10-02T04:34:21.648Z,13.42
2022-10-02T04:35:22.275Z,13.37
2022-10-02T04:36:22.629Z,13.36
2022-10-02T04:37:23.213Z,13.24
2022-10-02T04:38:23.530Z,13.27
2022-10-02T04:39:24.180Z,13.3
2022-10-02T04:40:25.370Z,13.26
2022-10-02T04:41:26.043Z,13.33
2022-10-02T04:42:27.236Z,13.17
2022-10-02T04:43:27.417Z,13.2
2022-10-02T04:44:27.611Z,13.24
2022-10-02T04:45:28.624Z,13.23
2022-10-02T04:46:28.612Z,13.19
2022-10-02T04:47:28.995Z,13.13
2022-10-02T04:48:29.611Z,13.13
2022-10-02T04:49:30.530Z,13.09
2022-10-02T04:50:30.725Z,13.06
2022-10-02T04:51:30.913Z,13.11
2022-10-02T04:52:31.098Z,12.99
2022-10-02T04:53:31.523Z,13.03
2022-10-02T04:54:31.138Z,13.01
2022-10-02T04:55:31.786Z,12.99
2022-10-02T04:56:33.241Z,13.02
2022-10-02T04:57:33.301Z,12.98
2022-10-02T04:58:33.845Z,13.05
2022-10-02T04:59:34.480Z,13.02
2022-10-02T05:00:35.230Z,12.94
2022-10-02T05:01:35.420Z,12.93
2022-10-02T05:02:35.886Z,12.94
2022-10-02T05:03:36.623Z,12.98
2022-10-02T05:04:37.532Z,12.94
2022-10-02T05:05:38.449Z,12.9
2022-10-02T05:06:40.119Z,12.94
2022-10-02T05:07:40.053Z,12.99
2022-10-02T05:08:40.668Z,12.93
2022-10-02T05:09:41.285Z,12.98
2022-10-02T05:10:41.496Z,12.9
2022-10-02T05:11:41.745Z,12.9
2022-10-02T05:12:41.647Z,12.93
2022-10-02T05:13:42.981Z,12.93
2022-10-02T05:14:42.916Z,12.9
2022-10-02T05:15:44.212Z,12.99
2022-10-02T05:16:45.113Z,12.87
2022-10-02T05:17:44.780Z,12.99
2022-10-02T05:18:45.686Z,12.86
2022-10-02T05:19:46.020Z,12.84
2022-10-02T05:20:46.932Z,12.93
2022-10-02T05:21:47.546Z,12.86
2022-10-02T05:22:48.466Z,12.9
2022-10-02T05:23:49.773Z,12.93
2022-10-02T05:24:49.994Z,12.94
2022-10-02T05:25:50.342Z,12.86
2022-10-02T05:26:51.315Z,12.9
2022-10-02T05:27:52.422Z,12.9
2022-10-02T05:28:52.843Z,12.93
2022-10-02T05:29:53.164Z,12.93
2022-10-02T05:30:53.502Z,12.95
2022-10-02T05:31:55.050Z,12.95
2022-10-02T05:32:55.671Z,12.9
2022-10-02T05:33:55.792Z,12.88
2022-10-02T05:34:56.008Z,12.88
2022-10-02T05:35:56.215Z,12.88
2022-10-02T05:36:57.107Z,12.91
2022-10-02T05:37:57.451Z,12.95
2022-10-02T05:38:57.789Z,12.98
2022-10-02T05:39:58.109Z,12.93
2022-10-02T05:40:59.020Z,12.91
2022-10-02T05:42:00.246Z,12.9
2022-10-02T05:43:00.435Z,12.84
2022-10-02T05:44:00.481Z,12.93
2022-10-02T05:45:01.677Z,12.86
2022-10-02T05:46:02.570Z,12.87
2022-10-02T05:47:02.664Z,12.91
2022-10-02T05:48:03.628Z,12.78
2022-10-02T05:49:03.540Z,12.76
2022-10-02T05:50:03.750Z,12.8
2022-10-02T05:51:04.961Z,12.9
2022-10-02T05:52:05.180Z,12.81
2022-10-02T05:53:05.394Z,12.84
2022-10-02T05:54:06.391Z,12.88
2022-10-02T05:55:07.306Z,12.88
2022-10-02T05:56:07.209Z,12.83
2022-10-02T05:57:08.461Z,12.81
2022-10-02T05:58:08.781Z,12.83
2022-10-02T05:59:09.919Z,12.8
2022-10-02T06:00:09.962Z,12.87
2022-10-02T06:01:11.447Z,12.8
2022-10-02T06:02:12.141Z,12.83
2022-10-02T06:03:12.198Z,12.75
2022-10-02T06:04:12.910Z,12.78
2022-10-02T06:05:14.100Z,12.76
2022-10-02T06:06:14.025Z,12.84
2022-10-02T06:07:14.664Z,12.78
2022-10-02T06:08:15.580Z,12.73
2022-10-02T06:09:20.649Z,12.8
2022-10-02T06:10:16.570Z,12.8
2022-10-02T06:11:17.546Z,12.81
2022-10-02T06:12:17.914Z,12.83
2022-10-02T06:13:18.813Z,12.8
2022-10-02T06:14:19.139Z,12.78
2022-10-02T06:15:19.351Z,12.78
2022-10-02T06:16:20.510Z,12.9
2022-10-02T06:17:21.271Z,12.76
2022-10-02T06:18:21.165Z,12.83
2022-10-02T06:19:21.260Z,12.78
2022-10-02T06:20:21.872Z,12.87
2022-10-02T06:21:21.784Z,12.8
2022-10-02T06:22:22.130Z,12.83
2022-10-02T06:23:22.743Z,12.83
2022-10-02T06:24:23.745Z,12.8
2022-10-02T06:25:24.659Z,12.69
2022-10-02T06:26:25.726Z,12.7
2022-10-02T06:27:26.286Z,12.62
2022-10-02T06:28:26.589Z,12.65
2022-10-02T06:29:32.584Z,12.63
2022-10-02T06:30:27.782Z,12.69
2022-10-02T06:31:27.958Z,12.65
2022-10-02T06:32:28.404Z,12.66
2022-10-02T06:33:28.446Z,12.58
2022-10-02T06:34:29.476Z,12.61
2022-10-02T06:35:29.843Z,12.63
2022-10-02T06:36:30.475Z,12.68
2022-10-02T06:37:31.105Z,12.66
2022-10-02T06:38:32.022Z,12.65
2022-10-02T06:39:31.959Z,12.69
2022-10-02T06:40:32.571Z,12.63
2022-10-02T06:41:33.188Z,12.73
2022-10-02T06:42:33.719Z,12.61
2022-10-02T06:43:33.942Z,12.69
2022-10-02T06:44:34.961Z,12.65
2022-10-02T06:45:35.819Z,12.69
2022-10-02T06:46:36.587Z,12.68
2022-10-02T06:47:36.533Z,12.61
2022-10-02T06:48:37.434Z,12.61
2022-10-02T06:49:38.328Z,12.54
2022-10-02T06:50:38.943Z,12.51
2022-10-02T06:51:39.874Z,12.55
2022-10-02T06:52:44.016Z,12.43
2022-10-02T06:53:40.930Z,12.44
2022-10-02T06:54:41.923Z,12.55
2022-10-02T06:55:42.537Z,12.54
2022-10-02T06:56:43.530Z,12.54
2022-10-02T06:57:44.478Z,12.51
2022-10-02T06:58:44.402Z,12.54
2022-10-02T06:59:44.985Z,12.54
2022-10-02T07:00:46.124Z,12.53
2022-10-02T07:01:46.100Z,12.53
2022-10-02T07:02:47.087Z,12.51
2022-10-02T07:03:47.424Z,12.5
2022-10-02T07:04:48.134Z,12.54
2022-10-02T07:05:49.056Z,12.37
2022-10-02T07:06:49.971Z,12.5
2022-10-02T07:07:50.593Z,12.48
2022-10-02T07:08:51.510Z,12.54
2022-10-02T07:09:51.834Z,12.61
2022-10-02T07:10:52.767Z,12.58
2022-10-02T07:11:53.957Z,12.55
2022-10-02T07:12:54.649Z,12.54
2022-10-02T07:13:55.131Z,12.51
2022-10-02T07:14:56.141Z,12.54
2022-10-02T07:15:56.761Z,12.51
2022-10-02T07:16:57.185Z,12.48
2022-10-02T07:17:58.206Z,12.53
2022-10-02T07:18:58.840Z,12.5
2022-10-02T07:19:59.058Z,12.51
2022-10-02T07:20:59.398Z,12.54
2022-10-02T07:22:00.015Z,12.53
2022-10-02T07:23:00.616Z,12.5
2022-10-02T07:24:04.280Z,12.44
2022-10-02T07:25:01.590Z,12.53
2022-10-02T07:26:02.209Z,12.4
2022-10-02T07:27:02.822Z,12.47
2022-10-02T07:28:04.031Z,12.44
2022-10-02T07:29:04.751Z,12.44
2022-10-02T07:30:05.876Z,12.43
2022-10-02T07:31:06.505Z,12.43
2022-10-02T07:32:07.119Z,12.5
2022-10-02T07:33:07.332Z,12.53
2022-10-02T07:34:08.255Z,12.53
2022-10-02T07:35:08.391Z,12.51
2022-10-02T07:36:09.307Z,12.51
2022-10-02T07:37:10.194Z,12.51
2022-10-02T07:38:11.105Z,12.53
2022-10-02T07:39:11.018Z,12.47
2022-10-02T07:40:12.213Z,12.53
2022-10-02T07:41:12.424Z,12.47
2022-10-02T07:42:13.341Z,12.5
2022-10-02T07:43:14.028Z,12.57
2022-10-02T07:44:14.929Z,12.54
2022-10-02T07:45:15.258Z,12.54
2022-10-02T07:46:16.151Z,12.57
2022-10-02T07:47:16.077Z,12.61
2022-10-02T07:48:16.697Z,12.57
2022-10-02T07:49:17.621Z,12.61
2022-10-02T07:50:18.533Z,12.66
2022-10-02T07:51:23.927Z,12.66
2022-10-02T07:52:20.354Z,12.7
2022-10-02T07:53:20.964Z,12.63
2022-10-02T07:54:22.178Z,12.78
2022-10-02T07:55:22.895Z,12.78
2022-10-02T07:56:23.105Z,12.84
2022-10-02T07:57:23.217Z,12.9
2022-10-02T07:58:23.180Z,12.91
2022-10-02T07:59:24.086Z,12.88
2022-10-02T08:00:25.429Z,12.9
2022-10-02T08:01:25.935Z,12.81
2022-10-02T08:02:26.067Z,12.78
2022-10-02T08:03:26.967Z,12.76
2022-10-02T08:04:26.764Z,12.81
2022-10-02T08:05:27.465Z,12.81
2022-10-02T08:06:27.959Z,12.9
2022-10-02T08:07:27.482Z,12.84
2022-10-02T08:08:28.705Z,12.84
2022-10-02T08:09:29.340Z,12.87
2022-10-02T08:10:30.236Z,12.87
2022-10-02T08:11:31.172Z,13.03
2022-10-02T08:12:31.495Z,13.01
2022-10-02T08:13:32.515Z,13.05
2022-10-02T08:14:33.709Z,12.99
2022-10-02T08:15:34.037Z,12.99
2022-10-02T08:16:35.699Z,12.95
2022-10-02T08:17:34.868Z,13.01
2022-10-02T08:18:40.931Z,13.03
2022-10-02T08:19:36.422Z,12.98
2022-10-02T08:20:36.346Z,13.05
2022-10-02T08:21:36.964Z,13.02
2022-10-02T08:22:37.306Z,13.02
2022-10-02T08:23:38.292Z,13.02
2022-10-02T08:24:38.212Z,12.98
2022-10-02T08:25:39.234Z,13.01
2022-10-02T08:26:42.611Z,13.05
2022-10-02T08:27:40.422Z,13.08
2022-10-02T08:28:41.500Z,13.13
2022-10-02T08:29:41.702Z,13.17
2022-10-02T08:30:42.918Z,13.19
2022-10-02T08:31:43.004Z,13.16
2022-10-02T08:32:43.639Z,13.12
2022-10-02T08:33:44.829Z,13.08
2022-10-02T08:34:45.324Z,13.03
2022-10-02T08:35:45.479Z,13.02
2022-10-02T08:36:46.394Z,13.02
2022-10-02T08:37:46.736Z,13.08
2022-10-02T08:38:54.723Z,13.12
2022-10-02T08:39:48.476Z,13.16
2022-10-02T08:40:49.381Z,13.23
2022-10-02T08:41:49.581Z,13.19
2022-10-02T08:42:50.078Z,13.19
2022-10-02T08:43:50.032Z,13.12
2022-10-02T08:44:50.957Z,13.11
2022-10-02T08:45:51.920Z,13.17
2022-10-02T08:46:52.647Z,13.12
2022-10-02T08:47:53.262Z,13.19
2022-10-02T08:48:53.755Z,13.17
2022-10-02T08:49:53.942Z,13.12
2022-10-02T08:50:53.553Z,13.21
2022-10-02T08:51:54.747Z,13.24
2022-10-02T08:52:54.360Z,13.27
2022-10-02T08:53:55.277Z,13.24
2022-10-02T08:54:55.474Z,13.23
2022-10-02T08:55:55.873Z,13.31
2022-10-02T08:56:57.061Z,13.3
2022-10-02T08:57:57.990Z,13.27
2022-10-02T08:58:58.275Z,13.27
2022-10-02T08:59:58.604Z,13.21
2022-10-02T09:01:00.045Z,13.36
2022-10-02T09:02:05.510Z,13.3
2022-10-02T09:03:01.884Z,13.39
2022-10-02T09:04:02.204Z,13.43
2022-10-02T09:05:02.820Z,13.47
2022-10-02T09:06:03.396Z,13.57
2022-10-02T09:07:03.537Z,13.62
2022-10-02T09:08:04.456Z,13.62
2022-10-02T09:09:05.380Z,13.7
2022-10-02T09:10:06.275Z,13.68
2022-10-02T09:11:05.905Z,13.71
2022-10-02T09:12:07.104Z,13.71
2022-10-02T09:13:07.321Z,13.76
2022-10-02T09:14:08.282Z,13.89
2022-10-02T09:15:08.191Z,13.83
2022-10-02T09:16:09.209Z,13.86
2022-10-02T09:17:10.066Z,13.91
2022-10-02T09:18:10.006Z,13.86
2022-10-02T09:19:10.628Z,13.97
2022-10-02T09:20:10.244Z,14
2022-10-02T09:21:16.959Z,13.95
2022-10-02T09:22:12.160Z,13.87
2022-10-02T09:23:12.793Z,14.01
2022-10-02T09:24:14.005Z,14.01
2022-10-02T09:25:13.945Z,13.85
2022-10-02T09:26:14.094Z,13.98
2022-10-02T09:27:15.014Z,13.94
2022-10-02T09:28:15.093Z,14.04
2022-10-02T09:29:15.994Z,14.03
2022-10-02T09:30:16.603Z,14.12
2022-10-02T09:31:17.051Z,14.15
2022-10-02T09:32:18.150Z,14.18
2022-10-02T09:33:21.688Z,14.23
2022-10-02T09:34:19.306Z,14.16
2022-10-02T09:35:19.502Z,14.19
2022-10-02T09:36:19.915Z,14.16
2022-10-02T09:37:19.816Z,14.19
2022-10-02T09:38:19.865Z,14.3
2022-10-02T09:39:21.364Z,14.25
2022-10-02T09:40:21.406Z,14.28
2022-10-02T09:41:22.353Z,14.36
2022-10-02T09:42:22.851Z,14.33
2022-10-02T09:43:22.787Z,14.36
2022-10-02T09:44:23.746Z,14.38
2022-10-02T09:45:24.046Z,14.33
2022-10-02T09:46:24.828Z,14.38
2022-10-02T09:47:25.460Z,14.4
2022-10-02T09:48:25.506Z,14.44
2022-10-02T09:49:26.424Z,14.44
2022-10-02T09:50:27.049Z,14.45
2022-10-02T09:51:27.966Z,14.59
2022-10-02T09:52:28.883Z,14.55
2022-10-02T09:53:29.353Z,14.56
2022-10-02T09:54:30.256Z,14.53
2022-10-02T09:55:30.169Z,14.58
2022-10-02T09:56:30.888Z,14.53
2022-10-02T09:57:31.869Z,14.59
2022-10-02T09:58:32.812Z,14.61
2022-10-02T09:59:33.738Z,14.78
2022-10-02T10:00:33.647Z,14.74
2022-10-02T10:01:34.285Z,14.82
2022-10-02T10:02:34.683Z,14.97
2022-10-02T10:03:35.124Z,14.97
2022-10-02T10:05:06.886Z,15.08
2022-10-02T10:05:35.922Z,15.1
2022-10-02T10:06:37.417Z,15
2022-10-02T10:07:37.442Z,15.05
2022-10-02T10:08:37.764Z,15.07
2022-10-02T10:09:38.985Z,15.12
2022-10-02T10:10:39.898Z,15.1
2022-10-02T10:11:40.563Z,15.25
2022-10-02T10:12:40.485Z,15.19
2022-10-02T10:13:41.678Z,15.07
2022-10-02T10:14:42.633Z,15.05
2022-10-02T10:15:42.842Z,15.04
2022-10-02T10:16:42.853Z,15.12
2022-10-02T10:17:43.857Z,15.19
2022-10-02T10:18:44.055Z,15.29
2022-10-02T10:19:44.663Z,15.19
2022-10-02T10:20:44.907Z,15.35
2022-10-02T10:21:46.009Z,15.3
2022-10-02T10:22:46.231Z,15.41
2022-10-02T10:23:46.175Z,15.32
2022-10-02T10:24:46.106Z,15.45
2022-10-02T10:25:47.436Z,15.6
2022-10-02T10:26:48.216Z,15.69
2022-10-02T10:27:49.268Z,15.7
2022-10-02T10:28:49.351Z,15.76
2022-10-02T10:29:50.591Z,15.96
2022-10-02T10:30:50.804Z,16.13
2022-10-02T10:31:51.223Z,16.28
2022-10-02T10:32:51.903Z,16.29
2022-10-02T10:33:51.824Z,16.41
2022-10-02T10:34:52.739Z,16.39
2022-10-02T10:35:53.064Z,16.41
2022-10-02T10:36:53.771Z,16.44
2022-10-02T10:37:54.696Z,16.4
2022-10-02T10:38:55.342Z,16.44
2022-10-02T10:39:55.963Z,16.47
2022-10-02T10:40:56.565Z,16.58
2022-10-02T10:41:57.214Z,16.49
2022-10-02T10:43:17.024Z,16.61
2022-10-02T10:43:58.660Z,16.62
2022-10-02T10:44:59.634Z,16.64
2022-10-02T10:46:00.549Z,16.79
2022-10-02T10:47:00.828Z,16.83
2022-10-02T10:48:01.164Z,16.83
2022-10-02T10:49:01.085Z,16.89
2022-10-02T10:50:01.804Z,16.94
2022-10-02T10:51:02.447Z,16.98
2022-10-02T10:52:03.652Z,16.99
2022-10-02T10:53:03.853Z,17.1
2022-10-02T10:54:07.582Z,17.27
2022-10-02T10:55:04.784Z,17.38
2022-10-02T10:56:04.983Z,17.73
2022-10-02T10:57:05.274Z,17.93
2022-10-02T10:58:05.601Z,17.98
2022-10-02T10:59:06.523Z,18.08
2022-10-02T11:00:07.171Z,18.16
2022-10-02T11:01:08.669Z,18.31
2022-10-02T11:02:09.684Z,18.26
2022-10-02T11:03:10.408Z,18.45
2022-10-02T11:04:11.329Z,18.34
2022-10-02T11:05:11.675Z,18.37
2022-10-02T11:06:12.298Z,18.42
2022-10-02T11:07:13.384Z,18.41
2022-10-02T11:08:14.311Z,18.46
2022-10-02T11:09:13.931Z,18.39
2022-10-02T11:10:15.164Z,18.42
2022-10-02T11:11:16.372Z,18.51
2022-10-02T11:12:17.296Z,18.39
2022-10-02T11:13:18.214Z,18.51
2022-10-02T11:14:18.414Z,18.55
2022-10-02T11:15:19.659Z,18.63
2022-10-02T11:16:20.018Z,18.61
2022-10-02T11:17:20.386Z,18.58
2022-10-02T11:18:21.604Z,18.57
2022-10-02T11:19:26.832Z,18.68
2022-10-02T11:20:22.058Z,18.68
2022-10-02T11:21:22.670Z,18.61
2022-10-02T11:22:23.279Z,18.66
2022-10-02T11:23:24.179Z,18.67
2022-10-02T11:24:25.108Z,18.7
2022-10-02T11:25:25.154Z,18.73
2022-10-02T11:26:26.077Z,18.78
2022-10-02T11:27:26.974Z,18.73
2022-10-02T11:28:28.577Z,18.86
2022-10-02T11:29:28.525Z,18.86
2022-10-02T11:30:28.778Z,18.88
2022-10-02T11:31:29.158Z,18.86
2022-10-02T11:32:29.706Z,18.91
2022-10-02T11:33:30.918Z,18.91
2022-10-02T11:34:31.155Z,18.88
2022-10-02T11:35:31.481Z,18.88
2022-10-02T11:36:32.383Z,18.91
2022-10-02T11:37:33.091Z,18.86
2022-10-02T11:38:34.310Z,19
2022-10-02T11:39:35.239Z,19.04
2022-10-02T11:40:35.567Z,18.98
2022-10-02T11:41:36.433Z,19
2022-10-02T11:42:36.881Z,18.98
2022-10-02T11:43:44.246Z,19.08
2022-10-02T11:44:38.224Z,19.04
2022-10-02T11:45:39.670Z,19.04
2022-10-02T11:46:39.427Z,19.08
2022-10-02T11:47:40.052Z,19.09
2022-10-02T11:48:40.263Z,19.08
2022-10-02T11:49:40.465Z,19.11
2022-10-02T11:50:41.386Z,19.08
2022-10-02T11:51:41.988Z,18.98
2022-10-02T11:52:48.585Z,18.98
2022-10-02T11:53:42.856Z,18.96
2022-10-02T11:54:44.059Z,18.98
2022-10-02T11:55:43.983Z,19
2022-10-02T11:56:44.179Z,18.91
2022-10-02T11:57:44.915Z,18.89
2022-10-02T11:58:45.130Z,18.91
2022-10-02T11:59:46.057Z,18.94
2022-10-02T12:00:46.732Z,18.91
2022-10-02T12:01:47.946Z,18.89
2022-10-02T12:02:48.629Z,18.92
2022-10-02T12:03:48.607Z,18.89
2022-10-02T12:04:49.228Z,18.85
2022-10-02T12:05:50.430Z,18.88
2022-10-02T12:06:50.335Z,18.91
2022-10-02T12:07:51.415Z,18.86
2022-10-02T12:08:52.035Z,18.76
2022-10-02T12:09:52.532Z,18.76
2022-10-02T12:10:52.433Z,18.76
2022-10-02T12:11:53.629Z,18.68
2022-10-02T12:12:53.824Z,18.73
2022-10-02T12:13:54.321Z,18.78
2022-10-02T12:14:54.546Z,18.71
2022-10-02T12:15:54.789Z,18.67
2022-10-02T12:16:54.885Z,18.58
2022-10-02T12:17:55.732Z,18.57
2022-10-02T12:18:56.648Z,18.66
2022-10-02T12:19:56.969Z,18.74
2022-10-02T12:20:57.384Z,18.79
2022-10-02T12:21:57.306Z,18.7
2022-10-02T12:22:57.928Z,18.71
2022-10-02T12:23:59.124Z,18.81
2022-10-02T12:25:01.050Z,18.73
2022-10-02T12:25:59.960Z,18.55
2022-10-02T12:27:01.068Z,18.58
2022-10-02T12:28:01.209Z,18.51
2022-10-02T12:29:01.339Z,18.36
2022-10-02T12:30:02.243Z,18.37
2022-10-02T12:31:03.225Z,18.37
2022-10-02T12:32:03.920Z,18.34
2022-10-02T12:33:04.078Z,18.31
2022-10-02T12:34:04.693Z,18.16
2022-10-02T12:35:05.593Z,18.15
2022-10-02T12:36:05.518Z,18.15
2022-10-02T12:37:06.420Z,18.15
2022-10-02T12:38:06.570Z,18.05
2022-10-02T12:39:07.799Z,17.98
2022-10-02T12:40:08.491Z,18.05
2022-10-02T12:41:09.404Z,18
2022-10-02T12:42:10.025Z,17.95
2022-10-02T12:43:10.930Z,17.91
2022-10-02T12:44:11.559Z,17.79
2022-10-02T12:45:17.036Z,17.78
2022-10-02T12:46:12.696Z,17.76
2022-10-02T12:47:12.456Z,17.69
2022-10-02T12:48:13.485Z,17.52
2022-10-02T12:49:14.692Z,17.56
2022-10-02T12:50:15.611Z,17.5
2022-10-02T12:51:15.831Z,17.47
2022-10-02T12:52:16.033Z,17.42
2022-10-02T12:53:15.950Z,17.38
2022-10-02T12:54:16.864Z,17.37
2022-10-02T12:55:16.482Z,17.37
2022-10-02T12:56:16.814Z,17.31
2022-10-02T12:57:18.136Z,17.32
2022-10-02T12:58:18.262Z,17.28
2022-10-02T12:59:19.456Z,17.3
2022-10-02T13:00:19.084Z,17.38
2022-10-02T13:01:20.807Z,17.49
2022-10-02T13:02:26.401Z,17.57
2022-10-02T13:03:21.794Z,17.53
2022-10-02T13:04:21.729Z,17.69